createdAt,value
2023-02-21T00:00:32.331Z,1.70
2023-02-21T00:03:17.838Z,2.10
2023-02-21T00:06:03.242Z,1.40
2023-02-21T00:08:48.521Z,1.50
2023-02-21T00:11:33.983Z,2.00
2023-02-21T00:14:19.409Z,1.40
2023-02-21T00:17:05.534Z,1.27
2023-02-21T00:19:50.719Z,1.47
2023-02-21T00:22:36.090Z,1.43
2023-02-21T00:25:21.568Z,1.23
2023-02-21T00:28:06.986Z,1.53
2023-02-21T00:30:52.663Z,1.17
2023-02-21T00:33:37.928Z,1.07
2023-02-21T00:36:23.260Z,0.73
2023-02-21T00:39:08.617Z,0.97
2023-02-21T00:41:54.021Z,1.27
2023-02-21T00:44:39.375Z,0.87
2023-02-21T00:47:24.769Z,0.97
2023-02-21T00:50:10.151Z,1.03
2023-02-21T00:52:55.497Z,1.00
2023-02-21T00:55:40.983Z,0.60
2023-02-21T00:58:26.404Z,0.70
2023-02-21T01:01:11.896Z,0.80
2023-02-21T01:03:57.191Z,0.90
2023-02-21T01:06:42.585Z,0.90
2023-02-21T01:09:27.940Z,0.80
2023-02-21T01:12:13.266Z,1.10
2023-02-21T01:14:58.757Z,0.90
2023-02-21T01:17:44.290Z,0.60
2023-02-21T01:20:29.636Z,1.30
2023-02-21T01:23:15.079Z,0.80
2023-02-21T01:26:00.384Z,0.80
2023-02-21T01:28:45.891Z,1.00
2023-02-21T01:31:36.468Z,1.27
2023-02-21T01:34:22.109Z,1.07
2023-02-21T01:37:07.605Z,0.50
2023-02-21T01:39:53.082Z,1.13
2023-02-21T01:42:38.543Z,0.77
2023-02-21T01:45:41.800Z,0.83
2023-02-21T01:48:33.778Z,1.07
2023-02-21T01:51:21.781Z,0.93
2023-02-21T01:54:07.126Z,0.90
2023-02-21T01:56:53.797Z,1.53
2023-02-21T01:59:42.394Z,0.73
2023-02-21T02:02:36.040Z,0.67
2023-02-21T02:05:24.040Z,0.93
2023-02-21T02:08:10.991Z,0.70
2023-02-21T02:10:56.471Z,0.70
2023-02-21T02:13:43.441Z,0.80
2023-02-21T02:16:12.776Z,1.03
2023-02-21T02:18:51.546Z,0.77
2023-02-21T02:21:34.509Z,0.90
2023-02-21T02:24:21.235Z,1.10
2023-02-21T02:27:00.854Z,1.03
2023-02-21T02:30:01.882Z,1.37
2023-02-21T02:32:50.267Z,0.83
2023-02-21T02:35:34.879Z,0.97
2023-02-21T02:38:12.783Z,1.00
2023-02-21T02:40:59.996Z,1.27
2023-02-21T02:43:34.287Z,1.23
2023-02-21T02:46:24.454Z,1.23
2023-02-21T02:48:58.784Z,0.70
2023-02-21T02:51:26.872Z,0.57
2023-02-21T02:53:53.537Z,0.80
2023-02-21T02:56:23.540Z,0.90
2023-02-21T02:58:55.051Z,1.20
2023-02-21T03:01:27.349Z,0.70
2023-02-21T03:04:16.679Z,0.83
2023-02-21T03:07:01.887Z,0.77
2023-02-21T03:10:05.528Z,0.93
2023-02-21T03:12:41.146Z,0.90
2023-02-21T03:15:18.426Z,0.83
2023-02-21T03:17:53.904Z,0.90
2023-02-21T03:20:21.918Z,0.80
2023-02-21T03:22:51.210Z,0.80
2023-02-21T03:25:19.544Z,0.80
2023-02-21T03:27:47.355Z,0.97
2023-02-21T03:30:14.723Z,0.70
2023-02-21T03:32:49.059Z,0.50
2023-02-21T03:35:16.261Z,0.90
2023-02-21T03:37:52.677Z,0.70
2023-02-21T03:40:30.986Z,0.93
2023-02-21T03:43:00.085Z,0.80
2023-02-21T03:45:27.240Z,1.10
2023-02-21T03:47:53.857Z,1.03
2023-02-21T03:50:20.469Z,0.80
2023-02-21T03:52:47.129Z,1.13
2023-02-21T03:55:13.743Z,1.43
2023-02-21T03:57:40.380Z,1.27
2023-02-21T04:00:07.901Z,0.90
2023-02-21T04:02:34.561Z,1.37
2023-02-21T04:05:01.312Z,2.00
2023-02-21T04:07:28.170Z,1.17
2023-02-21T04:09:54.818Z,1.80
2023-02-21T04:12:21.874Z,1.40
2023-02-21T04:14:48.494Z,1.10
2023-02-21T04:17:16.193Z,1.50
2023-02-21T04:19:43.151Z,1.63
2023-02-21T04:22:09.766Z,1.77
2023-02-21T04:24:36.366Z,1.93
2023-02-21T04:27:03.074Z,1.77
2023-02-21T04:29:29.715Z,2.33
2023-02-21T04:31:56.898Z,1.30
2023-02-21T04:34:23.576Z,1.70
2023-02-21T04:36:50.286Z,1.83
2023-02-21T04:39:17.001Z,1.53
2023-02-21T04:41:43.647Z,2.10
2023-02-21T04:44:10.439Z,1.63
2023-02-21T04:46:37.168Z,1.63
2023-02-21T04:49:03.919Z,3.70
2023-02-21T04:51:30.616Z,2.67
2023-02-21T04:53:57.860Z,2.50
2023-02-21T04:56:27.361Z,2.60
2023-02-21T04:58:54.066Z,1.43
2023-02-21T05:01:21.479Z,1.83
2023-02-21T05:03:48.630Z,1.73
2023-02-21T05:06:23.300Z,1.93
2023-02-21T05:08:50.082Z,2.00
2023-02-21T05:11:18.577Z,1.37
2023-02-21T05:13:45.347Z,2.13
2023-02-21T05:16:12.421Z,2.33
2023-02-21T05:18:41.622Z,2.30
2023-02-21T05:21:08.615Z,3.53
2023-02-21T05:23:36.854Z,2.33
2023-02-21T05:26:12.354Z,2.97
2023-02-21T05:28:40.554Z,2.37
2023-02-21T05:31:07.960Z,2.37
2023-02-21T05:33:34.902Z,2.70
2023-02-21T05:36:02.082Z,2.20
2023-02-21T05:38:28.672Z,2.10
2023-02-21T05:40:55.439Z,2.73
2023-02-21T05:43:22.098Z,2.20
2023-02-21T05:45:48.888Z,2.13
2023-02-21T05:48:15.721Z,2.30
2023-02-21T05:50:42.443Z,1.93
2023-02-21T05:53:10.506Z,2.17
2023-02-21T05:55:37.588Z,2.67
2023-02-21T05:58:04.436Z,1.80
2023-02-21T06:00:31.470Z,3.70
2023-02-21T06:02:58.141Z,2.57
2023-02-21T06:05:24.802Z,2.70
2023-02-21T06:07:51.784Z,2.53
2023-02-21T06:10:20.134Z,2.23
2023-02-21T06:12:47.036Z,2.20
2023-02-21T06:15:14.159Z,2.60
2023-02-21T06:17:41.445Z,3.67
2023-02-21T06:20:16.682Z,2.93
2023-02-21T06:22:43.979Z,3.60
2023-02-21T06:25:11.358Z,4.73
2023-02-21T06:27:38.014Z,2.70
2023-02-21T06:30:06.338Z,2.60
2023-02-21T06:32:33.251Z,3.10
2023-02-21T06:34:59.871Z,2.90
2023-02-21T06:37:26.509Z,2.70
2023-02-21T06:39:53.213Z,2.27
2023-02-21T06:42:19.885Z,2.30
2023-02-21T06:44:48.168Z,2.87
2023-02-21T06:47:15.370Z,3.20
2023-02-21T06:49:42.423Z,3.70
2023-02-21T06:52:10.104Z,2.43
2023-02-21T06:54:37.146Z,2.90
2023-02-21T06:57:05.635Z,2.80
2023-02-21T06:59:32.690Z,2.00
2023-02-21T07:01:59.705Z,3.23
2023-02-21T07:04:26.447Z,2.80
2023-02-21T07:06:53.096Z,3.67
2023-02-21T07:09:19.713Z,2.83
2023-02-21T07:11:47.155Z,3.20
2023-02-21T07:14:14.123Z,2.30
2023-02-21T07:16:40.811Z,3.10
2023-02-21T07:19:07.482Z,2.57
2023-02-21T07:21:34.094Z,2.60
2023-02-21T07:24:00.823Z,2.80
2023-02-21T07:26:27.496Z,2.80
2023-02-21T07:28:54.326Z,2.20
2023-02-21T07:31:21.342Z,2.63
2023-02-21T07:33:48.276Z,3.70
2023-02-21T07:36:14.953Z,2.63
2023-02-21T07:38:41.615Z,2.70
2023-02-21T07:41:08.227Z,2.97
2023-02-21T07:43:34.910Z,2.17
2023-02-21T07:46:01.810Z,3.00
2023-02-21T07:48:28.580Z,3.10
2023-02-21T07:50:55.227Z,2.50
2023-02-21T07:53:21.859Z,2.40
2023-02-21T07:55:48.447Z,2.40
2023-02-21T07:58:15.058Z,3.47
2023-02-21T08:00:41.748Z,3.17
2023-02-21T08:03:12.362Z,3.20
2023-02-21T08:05:39.510Z,5.20
2023-02-21T08:08:10.247Z,3.10
2023-02-21T08:10:37.645Z,2.80
2023-02-21T08:13:05.452Z,2.77
2023-02-21T08:15:32.101Z,4.90
2023-02-21T08:17:59.640Z,3.50
2023-02-21T08:20:26.328Z,2.57
2023-02-21T08:22:52.979Z,3.53
2023-02-21T08:25:19.645Z,3.63
2023-02-21T08:27:46.927Z,3.20
2023-02-21T08:30:16.506Z,2.57
2023-02-21T08:32:43.853Z,3.30
2023-02-21T08:35:14.819Z,2.60
2023-02-21T08:37:45.334Z,3.17
2023-02-21T08:40:12.886Z,2.53
2023-02-21T08:42:40.274Z,2.53
2023-02-21T08:45:07.603Z,3.30
2023-02-21T08:47:37.250Z,2.80
2023-02-21T08:50:04.150Z,3.37
2023-02-21T08:52:30.756Z,2.93
2023-02-21T08:54:57.518Z,3.03
2023-02-21T08:57:24.087Z,3.13
2023-02-21T08:59:50.695Z,2.20
2023-02-21T09:02:25.234Z,4.60
2023-02-21T09:04:52.828Z,2.53
2023-02-21T09:07:21.587Z,2.43
2023-02-21T09:09:48.768Z,2.50
2023-02-21T09:12:15.771Z,2.90
2023-02-21T09:14:43.049Z,2.73
2023-02-21T09:17:12.858Z,4.53
2023-02-21T09:19:40.319Z,2.70
2023-02-21T09:22:08.600Z,3.10
2023-02-21T09:24:35.519Z,2.93
2023-02-21T09:27:05.441Z,2.53
2023-02-21T09:29:45.468Z,3.27
2023-02-21T09:32:14.086Z,2.63
2023-02-21T09:34:41.394Z,2.87
2023-02-21T09:37:08.015Z,3.57
2023-02-21T09:39:38.073Z,3.03
2023-02-21T09:42:04.762Z,3.00
2023-02-21T09:44:31.618Z,3.40
2023-02-21T09:47:05.833Z,3.27
2023-02-21T09:49:40.173Z,2.60
2023-02-21T09:52:27.374Z,2.57
2023-02-21T09:55:00.234Z,2.67
2023-02-21T09:57:26.918Z,2.93
2023-02-21T09:59:53.881Z,2.90
2023-02-21T10:03:16.304Z,2.77
2023-02-21T10:05:51.982Z,2.67
2023-02-21T10:08:32.982Z,3.53
2023-02-21T10:11:07.578Z,2.60
2023-02-21T10:13:43.238Z,3.07
2023-02-21T10:16:32.919Z,2.20
2023-02-21T10:19:07.379Z,2.10
2023-02-21T10:21:42.370Z,3.40
2023-02-21T10:24:23.812Z,3.10
2023-02-21T10:27:07.986Z,4.23
2023-02-21T10:29:56.456Z,2.20
2023-02-21T10:32:25.389Z,3.23
2023-02-21T10:34:54.847Z,2.97
2023-02-21T10:37:33.292Z,2.90
2023-02-21T10:40:16.186Z,2.60
2023-02-21T10:42:50.350Z,3.93
2023-02-21T10:45:19.127Z,3.50
2023-02-21T10:47:55.179Z,3.30
2023-02-21T10:51:05.344Z,3.40
2023-02-21T10:53:35.512Z,2.80
2023-02-21T10:56:08.552Z,3.13
2023-02-21T10:58:36.939Z,3.03
2023-02-21T11:01:16.018Z,2.43
2023-02-21T11:03:48.628Z,2.70
2023-02-21T11:06:27.917Z,2.37
2023-02-21T11:08:54.866Z,2.90
2023-02-21T11:11:41.905Z,3.07
2023-02-21T11:14:19.327Z,2.10
2023-02-21T11:17:03.810Z,2.40
2023-02-21T11:20:06.631Z,2.27
2023-02-21T11:22:38.985Z,2.23
2023-02-21T11:25:18.772Z,2.40
2023-02-21T11:27:46.536Z,3.43
2023-02-21T11:30:22.461Z,3.17
2023-02-21T11:32:51.819Z,2.40
2023-02-21T11:35:44.186Z,3.30
2023-02-21T11:38:32.771Z,2.20
2023-02-21T11:41:00.758Z,4.17
2023-02-21T11:43:31.850Z,2.57
2023-02-21T11:46:20.582Z,2.20
2023-02-21T11:49:02.573Z,2.07
2023-02-21T11:51:44.045Z,2.93
2023-02-21T11:54:11.266Z,3.00
2023-02-21T11:56:48.262Z,2.07
2023-02-21T11:59:40.022Z,2.00
2023-02-21T12:02:42.148Z,2.70
2023-02-21T12:05:36.108Z,1.73
2023-02-21T12:08:23.775Z,1.43
2023-02-21T12:11:11.384Z,1.57
2023-02-21T12:14:19.680Z,1.63
2023-02-21T12:16:51.410Z,1.80
2023-02-21T12:19:36.140Z,1.83
2023-02-21T12:22:22.975Z,2.13
2023-02-21T12:24:49.567Z,2.20
2023-02-21T12:27:38.024Z,2.43
2023-02-21T12:30:10.721Z,2.03
2023-02-21T12:32:51.177Z,1.90
2023-02-21T12:35:49.195Z,2.57
2023-02-21T12:38:37.717Z,1.50
2023-02-21T12:41:20.241Z,1.23
2023-02-21T12:44:11.499Z,1.90
2023-02-21T12:46:54.997Z,1.50
2023-02-21T12:49:39.979Z,1.60
2023-02-21T12:52:38.387Z,2.53
2023-02-21T12:55:15.862Z,2.20
2023-02-21T12:57:52.993Z,1.90
2023-02-21T13:00:31.165Z,2.30
2023-02-21T13:03:36.543Z,1.70
2023-02-21T13:06:07.037Z,2.00
2023-02-21T13:08:54.147Z,2.03
2023-02-21T13:11:32.725Z,2.30
2023-02-21T13:14:00.592Z,1.27
2023-02-21T13:16:27.750Z,2.10
2023-02-21T13:19:02.122Z,1.77
2023-02-21T13:21:49.298Z,3.10
2023-02-21T13:24:42.788Z,2.37
2023-02-21T13:27:51.782Z,2.07
2023-02-21T13:30:38.457Z,2.17
2023-02-21T13:33:06.170Z,2.50
2023-02-21T13:35:36.757Z,1.40
2023-02-21T13:38:06.961Z,1.83
2023-02-21T13:40:38.330Z,2.07
2023-02-21T13:43:12.613Z,1.87
2023-02-21T13:45:39.472Z,2.70
2023-02-21T13:48:05.996Z,2.30
2023-02-21T13:50:39.212Z,3.87
2023-02-21T13:53:09.239Z,2.20
2023-02-21T13:55:37.686Z,2.27
2023-02-21T13:58:05.310Z,3.20
2023-02-21T14:00:32.032Z,2.63
2023-02-21T14:03:08.912Z,1.60
2023-02-21T14:05:44.503Z,1.80
2023-02-21T14:08:35.197Z,2.90
2023-02-21T14:11:14.704Z,1.80
2023-02-21T14:13:47.826Z,2.30
2023-02-21T14:16:18.001Z,1.53
2023-02-21T14:18:57.002Z,1.70
2023-02-21T14:21:43.332Z,2.40
2023-02-21T14:24:09.904Z,1.80
2023-02-21T14:26:50.978Z,1.57
2023-02-21T14:29:37.787Z,1.57
2023-02-21T14:32:04.514Z,1.60
2023-02-21T14:34:52.463Z,1.23
2023-02-21T14:37:36.693Z,1.47
2023-02-21T14:40:10.043Z,1.33
2023-02-21T14:43:02.329Z,1.73
2023-02-21T14:46:16.379Z,1.57
2023-02-21T14:49:18.082Z,1.33
2023-02-21T14:52:09.265Z,1.37
2023-02-21T14:55:12.417Z,1.23
2023-02-21T14:57:48.127Z,1.90
2023-02-21T15:00:25.514Z,1.10
2023-02-21T15:03:10.506Z,1.57
2023-02-21T15:06:08.214Z,1.30
2023-02-21T15:08:43.567Z,2.70
2023-02-21T15:11:25.650Z,2.73
2023-02-21T15:14:15.570Z,2.03
2023-02-21T15:16:46.287Z,1.30
2023-02-21T15:19:34.141Z,1.23
2023-02-21T15:22:18.956Z,1.60
2023-02-21T15:25:15.085Z,1.40
2023-02-21T15:27:51.107Z,2.23
2023-02-21T15:30:24.285Z,1.10
2023-02-21T15:33:05.983Z,1.57
2023-02-21T15:35:36.861Z,1.40
2023-02-21T15:38:10.336Z,2.10
2023-02-21T15:40:37.639Z,1.23
2023-02-21T15:43:06.098Z,1.70
2023-02-21T15:45:44.042Z,1.23
2023-02-21T15:48:10.822Z,1.50
2023-02-21T15:51:02.883Z,1.20
2023-02-21T15:53:29.617Z,1.70
2023-02-21T15:56:17.051Z,2.43
2023-02-21T15:59:08.060Z,2.10
2023-02-21T16:01:34.870Z,1.83
2023-02-21T16:04:38.134Z,1.70
2023-02-21T16:07:07.386Z,1.83
2023-02-21T16:09:35.808Z,1.93
2023-02-21T16:12:44.698Z,1.83
2023-02-21T16:15:32.705Z,1.50
2023-02-21T16:18:03.525Z,1.97
2023-02-21T16:20:34.033Z,2.87
2023-02-21T16:23:19.371Z,2.10
2023-02-21T16:26:09.186Z,1.57
2023-02-21T16:28:40.524Z,1.87
2023-02-21T16:31:15.879Z,1.60
2023-02-21T16:33:42.970Z,1.70
2023-02-21T16:36:19.738Z,1.80
2023-02-21T16:38:46.388Z,2.70
2023-02-21T16:41:15.967Z,2.00
2023-02-21T16:43:42.929Z,1.67
2023-02-21T16:46:09.756Z,1.70
2023-02-21T16:48:36.420Z,1.63
2023-02-21T16:51:07.434Z,2.47
2023-02-21T16:53:34.379Z,1.47
2023-02-21T16:56:01.998Z,2.17
2023-02-21T16:58:32.395Z,2.03
2023-02-21T17:01:04.523Z,2.00
2023-02-21T17:03:31.142Z,2.03
2023-02-21T17:05:59.897Z,1.90
2023-02-21T17:08:28.246Z,2.60
2023-02-21T17:10:56.682Z,2.77
2023-02-21T17:13:24.257Z,2.77
2023-02-21T17:15:54.059Z,2.00
2023-02-21T17:18:21.312Z,1.83
2023-02-21T17:20:48.055Z,2.33
2023-02-21T17:23:14.668Z,2.63
2023-02-21T17:25:41.445Z,1.50
2023-02-21T17:28:08.255Z,2.30
2023-02-21T17:30:35.019Z,1.93
2023-02-21T17:33:02.039Z,2.40
2023-02-21T17:35:29.155Z,2.37
2023-02-21T17:37:55.794Z,1.73
2023-02-21T17:40:22.947Z,2.50
2023-02-21T17:42:49.600Z,2.20
2023-02-21T17:45:21.490Z,2.93
2023-02-21T17:47:49.415Z,3.23
2023-02-21T17:50:16.999Z,3.20
2023-02-21T17:52:44.082Z,3.23
2023-02-21T17:55:21.892Z,3.27
2023-02-21T17:57:49.014Z,3.70
2023-02-21T18:00:24.683Z,3.13
2023-02-21T18:02:56.027Z,2.80
2023-02-21T18:05:23.376Z,4.77
2023-02-21T18:07:51.572Z,2.23
2023-02-21T18:10:20.389Z,2.80
2023-02-21T18:12:48.302Z,2.87
2023-02-21T18:15:17.451Z,2.20
2023-02-21T18:17:44.051Z,2.13
2023-02-21T18:20:11.166Z,3.00
2023-02-21T18:22:38.603Z,2.83
2023-02-21T18:25:05.885Z,2.90
2023-02-21T18:27:32.516Z,2.40
2023-02-21T18:29:59.192Z,2.87
2023-02-21T18:32:26.677Z,3.20
2023-02-21T18:34:53.275Z,2.23
2023-02-21T18:37:20.439Z,3.47
2023-02-21T18:39:54.449Z,3.90
2023-02-21T18:42:22.531Z,3.70
2023-02-21T18:44:49.559Z,3.77
2023-02-21T18:47:17.254Z,3.60
2023-02-21T18:49:44.076Z,4.20
2023-02-21T18:52:11.865Z,4.80
2023-02-21T18:54:49.658Z,5.43
2023-02-21T18:57:21.737Z,5.73
2023-02-21T18:59:49.055Z,5.73
2023-02-21T19:02:17.818Z,26.07
2023-02-21T19:04:44.925Z,26.53
2023-02-21T19:07:13.740Z,7.40
2023-02-21T19:09:40.417Z,7.17
2023-02-21T19:12:09.878Z,9.63
2023-02-21T19:14:37.656Z,7.23
2023-02-21T19:17:07.482Z,8.73
2023-02-21T19:19:34.782Z,7.67
2023-02-21T19:22:01.464Z,6.93
2023-02-21T19:24:28.362Z,8.40
2023-02-21T19:26:55.039Z,8.00
2023-02-21T19:29:21.839Z,7.87
2023-02-21T19:31:49.226Z,8.27
2023-02-21T19:34:16.148Z,8.30
2023-02-21T19:36:42.821Z,9.20
2023-02-21T19:39:10.024Z,9.40
2023-02-21T19:41:36.710Z,8.53
2023-02-21T19:44:04.499Z,8.67
2023-02-21T19:46:31.097Z,9.30
2023-02-21T19:48:59.571Z,12.20
2023-02-21T19:51:28.345Z,9.10
2023-02-21T19:53:58.755Z,9.97
2023-02-21T19:56:26.792Z,11.73
2023-02-21T19:58:53.754Z,10.07
2023-02-21T20:01:21.596Z,12.07
2023-02-21T20:03:49.284Z,11.33
2023-02-21T20:06:17.050Z,12.60
2023-02-21T20:08:48.314Z,12.67
2023-02-21T20:11:19.100Z,11.67
2023-02-21T20:13:45.900Z,11.87
2023-02-21T20:16:15.393Z,13.63
2023-02-21T20:18:45.689Z,14.10
2023-02-21T20:21:20.320Z,13.70
2023-02-21T20:23:47.018Z,15.30
2023-02-21T20:26:14.514Z,13.17
2023-02-21T20:28:41.329Z,14.10
2023-02-21T20:31:11.165Z,13.10
2023-02-21T20:33:38.302Z,15.20
2023-02-21T20:36:05.614Z,14.83
2023-02-21T20:38:32.493Z,14.53
2023-02-21T20:41:00.164Z,15.27
2023-02-21T20:43:27.363Z,16.70
2023-02-21T20:45:54.752Z,15.43
2023-02-21T20:48:25.374Z,17.80
2023-02-21T20:50:53.548Z,17.47
2023-02-21T20:53:20.168Z,15.60
2023-02-21T20:55:46.765Z,17.20
2023-02-21T20:58:13.377Z,16.47
2023-02-21T21:00:40.288Z,15.87
2023-02-21T21:03:09.338Z,15.10
2023-02-21T21:05:35.984Z,15.80
2023-02-21T21:08:02.656Z,15.63
2023-02-21T21:10:29.270Z,14.70
2023-02-21T21:12:57.031Z,16.63
2023-02-21T21:15:23.779Z,15.80
2023-02-21T21:17:50.400Z,13.90
2023-02-21T21:20:20.006Z,14.07
2023-02-21T21:22:47.175Z,12.33
2023-02-21T21:25:14.543Z,14.33
2023-02-21T21:27:42.395Z,15.60
2023-02-21T21:30:10.916Z,13.80
2023-02-21T21:32:37.676Z,13.37
2023-02-21T21:35:07.206Z,12.40
2023-02-21T21:37:35.360Z,12.30
2023-02-21T21:40:16.192Z,12.53
2023-02-21T21:42:44.937Z,10.90
2023-02-21T21:45:18.403Z,10.50
2023-02-21T21:47:46.825Z,11.10
2023-02-21T21:50:15.561Z,12.10
2023-02-21T21:52:50.337Z,10.37
2023-02-21T21:55:24.312Z,9.17
2023-02-21T21:57:53.439Z,9.73
2023-02-21T22:00:25.958Z,9.40
2023-02-21T22:02:57.141Z,10.10
2023-02-21T22:05:30.321Z,11.77
2023-02-21T22:07:58.330Z,12.33
2023-02-21T22:10:26.168Z,10.90
2023-02-21T22:12:54.505Z,10.53
2023-02-21T22:15:24.680Z,12.83
2023-02-21T22:17:51.525Z,10.43
2023-02-21T22:20:21.733Z,10.17
2023-02-21T22:22:50.630Z,11.13
2023-02-21T22:25:20.058Z,12.40
2023-02-21T22:27:48.211Z,11.20
2023-02-21T22:30:20.689Z,10.90
2023-02-21T22:32:48.563Z,11.50
2023-02-21T22:35:21.023Z,14.73
2023-02-21T22:37:50.463Z,11.50
2023-02-21T22:40:24.202Z,12.30
2023-02-21T22:42:57.475Z,11.37
2023-02-21T22:45:24.470Z,11.63
2023-02-21T22:47:53.917Z,12.20
2023-02-21T22:50:22.324Z,11.43
2023-02-21T22:52:54.691Z,12.73
2023-02-21T22:55:26.355Z,10.97
2023-02-21T22:57:54.313Z,11.40
2023-02-21T23:00:32.844Z,12.73
2023-02-21T23:03:01.506Z,10.67
2023-02-21T23:05:28.774Z,10.50
2023-02-21T23:07:59.956Z,12.17
2023-02-21T23:10:28.362Z,11.37
2023-02-21T23:13:00.969Z,12.53
2023-02-21T23:15:27.881Z,13.63
2023-02-21T23:17:54.709Z,12.47
2023-02-21T23:20:26.551Z,13.63
2023-02-21T23:22:54.420Z,12.80
2023-02-21T23:25:25.574Z,12.37
2023-02-21T23:27:55.396Z,13.63
2023-02-21T23:30:27.028Z,14.50
2023-02-21T23:32:55.582Z,13.43
2023-02-21T23:35:22.653Z,14.90
2023-02-21T23:37:49.306Z,14.53
2023-02-21T23:40:19.275Z,13.83
2023-02-21T23:42:49.464Z,13.50
2023-02-21T23:45:21.429Z,12.90
2023-02-21T23:47:49.859Z,14.30
2023-02-21T23:50:18.508Z,14.07
2023-02-21T23:52:50.283Z,13.93
2023-02-21T23:55:19.791Z,15.30
2023-02-21T23:57:47.235Z,14.70
